Terminal Aerodrome Forecast
Issued by NWS

Home | Current Version | Previous Version | Text Only | Print | Product List | Glossary On
Versions: 1 2 3 4 5 6 7 8 9 10 11 12 13
000
FTUS44 KBMX 272300
TAFTCL
TAF
KTCL 272320Z 2800/2824 25006KT P6SM SCT250
     FM281000 20004KT P6SM VCSH BKN030 BKN070
     FM281300 33012KT P6SM SCT030 BKN070
     FM282100 33012KT P6SM SKC=

USA.gov is the U.S. government's official web portal to all federal, state and local government web resources and services.